sensor_id;sensor_type;location;lat;lon;timestamp;pressure;altitude;pressure_sealevel;temperature;humidity
64687;BME280;51113;53.646;-113.674;2022-07-29T00:00:01;93381.31;;;30.47;43.85
64687;BME280;51113;53.646;-113.674;2022-07-29T00:02:31;93382.38;;;30.35;44.32
64687;BME280;51113;53.646;-113.674;2022-07-29T00:05:00;93375.84;;;30.47;43.55
64687;BME280;51113;53.646;-113.674;2022-07-29T00:07:29;93376.59;;;30.44;44.22
64687;BME280;51113;53.646;-113.674;2022-07-29T00:09:58;93367.47;;;30.33;45.33
64687;BME280;51113;53.646;-113.674;2022-07-29T00:12:27;93367.47;;;30.33;46.68
64687;BME280;51113;53.646;-113.674;2022-07-29T00:14:56;93374.16;;;30.35;46.96
64687;BME280;51113;53.646;-113.674;2022-07-29T00:17:25;93365.44;;;30.26;47.11
64687;BME280;51113;53.646;-113.674;2022-07-29T00:19:54;93361.47;;;30.20;47.26
64687;BME280;51113;53.646;-113.674;2022-07-29T00:22:22;93346.66;;;30.25;46.68
64687;BME280;51113;53.646;-113.674;2022-07-29T00:24:51;93352.16;;;30.28;46.98
64687;BME280;51113;53.646;-113.674;2022-07-29T00:27:20;93338.81;;;30.23;45.90
64687;BME280;51113;53.646;-113.674;2022-07-29T00:29:49;93344.66;;;30.22;46.94
64687;BME280;51113;53.646;-113.674;2022-07-29T00:32:18;93343.53;;;30.26;47.37
64687;BME280;51113;53.646;-113.674;2022-07-29T00:34:47;93338.47;;;30.28;47.56
64687;BME280;51113;53.646;-113.674;2022-07-29T00:37:35;93332.56;;;30.26;47.97
64687;BME280;51113;53.646;-113.674;2022-07-29T00:40:04;93327.19;;;30.00;49.01
64687;BME280;51113;53.646;-113.674;2022-07-29T00:42:53;93327.94;;;29.97;48.54
64687;BME280;51113;53.646;-113.674;2022-07-29T00:45:21;93329.06;;;29.92;49.86
64687;BME280;51113;53.646;-113.674;2022-07-29T00:47:50;93326.06;;;30.01;49.18
64687;BME280;51113;53.646;-113.674;2022-07-29T00:50:19;93323.09;;;29.83;48.88
64687;BME280;51113;53.646;-113.674;2022-07-29T00:52:47;93320.88;;;29.96;49.54
64687;BME280;51113;53.646;-113.674;2022-07-29T00:55:17;93316.72;;;30.05;49.93
64687;BME280;51113;53.646;-113.674;2022-07-29T00:57:45;93318.91;;;29.93;49.11
64687;BME280;51113;53.646;-113.674;2022-07-29T01:00:18;93312.00;;;30.06;50.10
64687;BME280;51113;53.646;-113.674;2022-07-29T01:02:48;93311.91;;;29.99;51.20
64687;BME280;51113;53.646;-113.674;2022-07-29T01:05:23;93306.44;;;29.99;51.17
64687;BME280;51113;53.646;-113.674;2022-07-29T01:08:13;93302.47;;;29.93;51.02
64687;BME280;51113;53.646;-113.674;2022-07-29T01:10:44;93305.56;;;29.91;51.19
64687;BME280;51113;53.646;-113.674;2022-07-29T01:13:15;93305.91;;;29.86;52.20
64687;BME280;51113;53.646;-113.674;2022-07-29T01:15:47;93297.16;;;29.73;52.67
64687;BME280;51113;53.646;-113.674;2022-07-29T01:18:24;93290.81;;;29.66;53.80
64687;BME280;51113;53.646;-113.674;2022-07-29T01:26:22;93295.97;;;29.71;51.26
64687;BME280;51113;53.646;-113.674;2022-07-29T01:31:45;93297.88;;;29.37;53.71
64687;BME280;51113;53.646;-113.674;2022-07-29T01:34:47;93296.03;;;29.15;54.11
64687;BME280;51113;53.646;-113.674;2022-07-29T01:40:03;93289.91;;;28.95;52.55
64687;BME280;51113;53.646;-113.674;2022-07-29T01:42:39;93281.28;;;28.93;53.08
64687;BME280;51113;53.646;-113.674;2022-07-29T01:50:33;93283.91;;;28.86;55.33
64687;BME280;51113;53.646;-113.674;2022-07-29T01:53:05;93282.72;;;28.83;55.76
64687;BME280;51113;53.646;-113.674;2022-07-29T01:55:38;93289.38;;;28.86;55.80
64687;BME280;51113;53.646;-113.674;2022-07-29T01:58:09;93285.16;;;28.92;56.13
64687;BME280;51113;53.646;-113.674;2022-07-29T02:00:39;93291.91;;;28.98;55.19
64687;BME280;51113;53.646;-113.674;2022-07-29T02:03:11;93285.50;;;28.87;54.04
64687;BME280;51113;53.646;-113.674;2022-07-29T02:05:42;93296.06;;;28.88;54.10
64687;BME280;51113;53.646;-113.674;2022-07-29T02:08:14;93288.09;;;28.79;54.80
64687;BME280;51113;53.646;-113.674;2022-07-29T02:10:45;93297.19;;;28.61;56.10
64687;BME280;51113;53.646;-113.674;2022-07-29T02:13:15;93290.38;;;28.51;56.61
64687;BME280;51113;53.646;-113.674;2022-07-29T02:15:46;93298.50;;;28.47;57.31
64687;BME280;51113;53.646;-113.674;2022-07-29T02:18:20;93302.03;;;28.48;57.18
64687;BME280;51113;53.646;-113.674;2022-07-29T02:20:52;93305.88;;;28.43;57.23
64687;BME280;51113;53.646;-113.674;2022-07-29T02:23:22;93298.81;;;28.42;57.36
64687;BME280;51113;53.646;-113.674;2022-07-29T02:25:56;93293.13;;;28.28;57.79
64687;BME280;51113;53.646;-113.674;2022-07-29T02:28:27;93301.63;;;28.23;57.77
64687;BME280;51113;53.646;-113.674;2022-07-29T02:31:00;93301.16;;;28.21;57.86
64687;BME280;51113;53.646;-113.674;2022-07-29T02:33:30;93300.69;;;28.15;58.25
64687;BME280;51113;53.646;-113.674;2022-07-29T02:36:01;93295.28;;;27.96;58.64
64687;BME280;51113;53.646;-113.674;2022-07-29T02:38:32;93294.00;;;27.90;58.76
64687;BME280;51113;53.646;-113.674;2022-07-29T02:41:30;93288.34;;;27.79;59.10
64687;BME280;51113;53.646;-113.674;2022-07-29T02:44:31;93295.97;;;27.70;59.76
64687;BME280;51113;53.646;-113.674;2022-07-29T02:47:20;93292.38;;;27.66;59.71
64687;BME280;51113;53.646;-113.674;2022-07-29T02:52:47;93288.94;;;27.50;60.05
64687;BME280;51113;53.646;-113.674;2022-07-29T02:55:26;93282.63;;;27.46;59.95
64687;BME280;51113;53.646;-113.674;2022-07-29T02:58:01;93275.72;;;27.33;59.98
64687;BME280;51113;53.646;-113.674;2022-07-29T03:00:33;93285.19;;;27.19;60.40
64687;BME280;51113;53.646;-113.674;2022-07-29T03:03:08;93273.78;;;27.14;61.03
64687;BME280;51113;53.646;-113.674;2022-07-29T03:05:38;93277.50;;;27.06;61.08
64687;BME280;51113;53.646;-113.674;2022-07-29T03:08:10;93264.78;;;26.94;61.66
64687;BME280;51113;53.646;-113.674;2022-07-29T03:10:43;93268.34;;;26.79;61.80
64687;BME280;51113;53.646;-113.674;2022-07-29T03:13:12;93269.84;;;26.76;61.63
64687;BME280;51113;53.646;-113.674;2022-07-29T03:15:45;93262.94;;;26.63;62.07
64687;BME280;51113;53.646;-113.674;2022-07-29T03:18:14;93265.06;;;26.54;62.42
64687;BME280;51113;53.646;-113.674;2022-07-29T03:20:43;93257.53;;;26.47;62.33
64687;BME280;51113;53.646;-113.674;2022-07-29T03:23:18;93262.44;;;26.42;62.58
64687;BME280;51113;53.646;-113.674;2022-07-29T03:25:48;93255.06;;;26.42;61.95
64687;BME280;51113;53.646;-113.674;2022-07-29T03:28:17;93265.78;;;26.35;62.27
64687;BME280;51113;53.646;-113.674;2022-07-29T03:30:46;93258.56;;;26.27;62.52
64687;BME280;51113;53.646;-113.674;2022-07-29T03:33:15;93261.56;;;26.22;63.15
64687;BME280;51113;53.646;-113.674;2022-07-29T03:35:44;93264.13;;;26.15;63.05
64687;BME280;51113;53.646;-113.674;2022-07-29T03:38:13;93259.72;;;26.10;62.99
64687;BME280;51113;53.646;-113.674;2022-07-29T03:40:49;93258.41;;;26.04;63.40
64687;BME280;51113;53.646;-113.674;2022-07-29T03:43:22;93260.03;;;25.93;63.81
64687;BME280;51113;53.646;-113.674;2022-07-29T03:45:54;93256.88;;;25.91;63.90
64687;BME280;51113;53.646;-113.674;2022-07-29T03:48:24;93260.31;;;25.88;64.08
64687;BME280;51113;53.646;-113.674;2022-07-29T03:50:53;93258.19;;;25.81;64.70
64687;BME280;51113;53.646;-113.674;2022-07-29T03:53:22;93257.31;;;25.77;64.89
64687;BME280;51113;53.646;-113.674;2022-07-29T03:55:54;93258.38;;;25.73;64.94
64687;BME280;51113;53.646;-113.674;2022-07-29T03:58:27;93259.28;;;25.64;65.23
64687;BME280;51113;53.646;-113.674;2022-07-29T04:00:56;93258.75;;;25.59;65.25
64687;BME280;51113;53.646;-113.674;2022-07-29T04:03:25;93257.19;;;25.58;65.31
64687;BME280;51113;53.646;-113.674;2022-07-29T04:06:04;93264.81;;;25.52;65.98
64687;BME280;51113;53.646;-113.674;2022-07-29T04:08:36;93261.19;;;25.48;65.87
64687;BME280;51113;53.646;-113.674;2022-07-29T04:11:05;93256.59;;;25.37;66.31
64687;BME280;51113;53.646;-113.674;2022-07-29T04:13:34;93257.75;;;25.36;66.45
64687;BME280;51113;53.646;-113.674;2022-07-29T04:16:02;93266.84;;;25.27;66.77
64687;BME280;51113;53.646;-113.674;2022-07-29T04:18:31;93265.97;;;25.23;67.05
64687;BME280;51113;53.646;-113.674;2022-07-29T04:21:00;93260.41;;;25.20;67.20
64687;BME280;51113;53.646;-113.674;2022-07-29T04:23:30;93261.34;;;25.12;67.45
64687;BME280;51113;53.646;-113.674;2022-07-29T04:26:19;93262.19;;;25.00;68.01
64687;BME280;51113;53.646;-113.674;2022-07-29T04:28:48;93265.03;;;24.91;68.52
64687;BME280;51113;53.646;-113.674;2022-07-29T04:31:17;93269.81;;;24.82;68.59
64687;BME280;51113;53.646;-113.674;2022-07-29T04:33:51;93268.78;;;24.75;68.98
64687;BME280;51113;53.646;-113.674;2022-07-29T04:36:20;93262.91;;;24.73;69.13
64687;BME280;51113;53.646;-113.674;2022-07-29T04:38:56;93264.97;;;24.63;69.50
64687;BME280;51113;53.646;-113.674;2022-07-29T04:41:25;93265.88;;;24.55;70.01
64687;BME280;51113;53.646;-113.674;2022-07-29T04:44:00;93256.75;;;24.48;70.29
64687;BME280;51113;53.646;-113.674;2022-07-29T04:46:35;93261.84;;;24.37;70.69
64687;BME280;51113;53.646;-113.674;2022-07-29T04:49:03;93265.13;;;24.30;71.12
64687;BME280;51113;53.646;-113.674;2022-07-29T04:51:32;93258.44;;;24.28;71.37
64687;BME280;51113;53.646;-113.674;2022-07-29T04:54:01;93260.69;;;24.26;71.28
64687;BME280;51113;53.646;-113.674;2022-07-29T04:56:30;93269.16;;;24.24;71.43
64687;BME280;51113;53.646;-113.674;2022-07-29T04:58:58;93265.00;;;24.15;71.66
64687;BME280;51113;53.646;-113.674;2022-07-29T05:01:27;93263.19;;;24.07;72.08
64687;BME280;51113;53.646;-113.674;2022-07-29T05:03:55;93262.50;;;24.10;71.87
64687;BME280;51113;53.646;-113.674;2022-07-29T05:06:26;93258.88;;;24.05;72.24
64687;BME280;51113;53.646;-113.674;2022-07-29T05:08:55;93261.47;;;24.02;72.26
64687;BME280;51113;53.646;-113.674;2022-07-29T05:11:24;93260.13;;;23.96;72.59
64687;BME280;51113;53.646;-113.674;2022-07-29T05:13:56;93256.28;;;23.97;72.56
64687;BME280;51113;53.646;-113.674;2022-07-29T05:16:24;93256.63;;;23.95;72.55
64687;BME280;51113;53.646;-113.674;2022-07-29T05:18:53;93261.13;;;23.91;72.70
64687;BME280;51113;53.646;-113.674;2022-07-29T05:21:22;93257.72;;;23.82;72.94
64687;BME280;51113;53.646;-113.674;2022-07-29T05:23:50;93256.81;;;23.78;73.27
64687;BME280;51113;53.646;-113.674;2022-07-29T05:26:19;93265.41;;;23.68;73.62
64687;BME280;51113;53.646;-113.674;2022-07-29T05:28:47;93263.69;;;23.63;73.86
64687;BME280;51113;53.646;-113.674;2022-07-29T05:31:16;93262.56;;;23.64;73.76
64687;BME280;51113;53.646;-113.674;2022-07-29T05:33:45;93258.88;;;23.48;74.72
64687;BME280;51113;53.646;-113.674;2022-07-29T05:36:13;93261.47;;;23.45;74.92
64687;BME280;51113;53.646;-113.674;2022-07-29T05:38:42;93260.06;;;23.38;75.21
64687;BME280;51113;53.646;-113.674;2022-07-29T05:41:11;93261.88;;;23.34;75.59
64687;BME280;51113;53.646;-113.674;2022-07-29T05:43:39;93263.31;;;23.32;75.91
64687;BME280;51113;53.646;-113.674;2022-07-29T05:46:08;93262.88;;;23.30;76.25
64687;BME280;51113;53.646;-113.674;2022-07-29T05:48:37;93260.28;;;23.33;75.97
64687;BME280;51113;53.646;-113.674;2022-07-29T05:51:07;93262.19;;;23.33;76.07
64687;BME280;51113;53.646;-113.674;2022-07-29T05:53:35;93266.59;;;23.25;76.27
64687;BME280;51113;53.646;-113.674;2022-07-29T05:56:04;93264.19;;;23.24;76.73
64687;BME280;51113;53.646;-113.674;2022-07-29T05:58:33;93259.78;;;23.19;76.58
64687;BME280;51113;53.646;-113.674;2022-07-29T06:01:02;93262.81;;;23.18;76.76
64687;BME280;51113;53.646;-113.674;2022-07-29T06:03:31;93256.50;;;23.14;76.49
64687;BME280;51113;53.646;-113.674;2022-07-29T06:05:59;93260.00;;;23.14;76.91
64687;BME280;51113;53.646;-113.674;2022-07-29T06:08:29;93259.06;;;23.10;77.10
64687;BME280;51113;53.646;-113.674;2022-07-29T06:10:57;93262.66;;;23.02;77.33
64687;BME280;51113;53.646;-113.674;2022-07-29T06:13:26;93255.97;;;22.99;77.43
64687;BME280;51113;53.646;-113.674;2022-07-29T06:15:54;93270.84;;;22.93;77.36
64687;BME280;51113;53.646;-113.674;2022-07-29T06:18:23;93267.41;;;22.84;77.49
64687;BME280;51113;53.646;-113.674;2022-07-29T06:20:52;93273.84;;;22.80;77.89
64687;BME280;51113;53.646;-113.674;2022-07-29T06:23:21;93266.19;;;22.73;78.03
64687;BME280;51113;53.646;-113.674;2022-07-29T06:25:50;93265.59;;;22.67;78.10
64687;BME280;51113;53.646;-113.674;2022-07-29T06:28:19;93264.34;;;22.65;78.21
64687;BME280;51113;53.646;-113.674;2022-07-29T06:30:47;93267.25;;;22.60;78.14
64687;BME280;51113;53.646;-113.674;2022-07-29T06:33:17;93262.16;;;22.58;77.96
64687;BME280;51113;53.646;-113.674;2022-07-29T06:35:47;93261.56;;;22.53;78.08
64687;BME280;51113;53.646;-113.674;2022-07-29T06:38:19;93263.09;;;22.41;78.32
64687;BME280;51113;53.646;-113.674;2022-07-29T06:41:00;93266.13;;;22.40;78.64
64687;BME280;51113;53.646;-113.674;2022-07-29T06:43:36;93267.88;;;22.36;78.65
64687;BME280;51113;53.646;-113.674;2022-07-29T06:46:20;93269.72;;;22.23;78.54
64687;BME280;51113;53.646;-113.674;2022-07-29T06:48:50;93267.34;;;22.22;79.07
64687;BME280;51113;53.646;-113.674;2022-07-29T06:51:20;93275.00;;;22.20;79.11
64687;BME280;51113;53.646;-113.674;2022-07-29T06:53:51;93267.09;;;22.06;79.64
64687;BME280;51113;53.646;-113.674;2022-07-29T06:56:24;93274.13;;;21.98;80.19
64687;BME280;51113;53.646;-113.674;2022-07-29T06:58:53;93276.34;;;21.96;80.27
64687;BME280;51113;53.646;-113.674;2022-07-29T07:01:22;93269.72;;;21.85;80.51
64687;BME280;51113;53.646;-113.674;2022-07-29T07:03:50;93266.06;;;21.81;81.11
64687;BME280;51113;53.646;-113.674;2022-07-29T07:06:19;93272.13;;;21.78;81.39
64687;BME280;51113;53.646;-113.674;2022-07-29T07:08:48;93266.59;;;21.74;81.47
64687;BME280;51113;53.646;-113.674;2022-07-29T07:11:17;93269.78;;;21.68;81.61
64687;BME280;51113;53.646;-113.674;2022-07-29T07:13:45;93258.34;;;21.62;82.24
64687;BME280;51113;53.646;-113.674;2022-07-29T07:16:14;93260.63;;;21.52;82.60
64687;BME280;51113;53.646;-113.674;2022-07-29T07:18:43;93264.47;;;21.42;83.01
64687;BME280;51113;53.646;-113.674;2022-07-29T07:21:13;93259.19;;;21.45;83.22
64687;BME280;51113;53.646;-113.674;2022-07-29T07:23:44;93267.47;;;21.40;83.00
64687;BME280;51113;53.646;-113.674;2022-07-29T07:26:14;93264.00;;;21.31;83.62
64687;BME280;51113;53.646;-113.674;2022-07-29T07:28:42;93257.81;;;21.31;83.96
64687;BME280;51113;53.646;-113.674;2022-07-29T07:31:11;93257.84;;;21.22;83.47
64687;BME280;51113;53.646;-113.674;2022-07-29T07:33:40;93256.06;;;21.17;84.63
64687;BME280;51113;53.646;-113.674;2022-07-29T07:36:09;93254.31;;;21.13;84.49
64687;BME280;51113;53.646;-113.674;2022-07-29T07:38:38;93251.63;;;21.13;84.49
64687;BME280;51113;53.646;-113.674;2022-07-29T07:41:06;93256.72;;;21.06;84.76
64687;BME280;51113;53.646;-113.674;2022-07-29T07:43:35;93254.66;;;21.03;85.22
64687;BME280;51113;53.646;-113.674;2022-07-29T07:46:04;93259.09;;;20.99;85.72
64687;BME280;51113;53.646;-113.674;2022-07-29T07:48:37;93253.56;;;20.95;85.71
64687;BME280;51113;53.646;-113.674;2022-07-29T07:51:25;93249.25;;;20.94;85.99
64687;BME280;51113;53.646;-113.674;2022-07-29T07:53:53;93255.31;;;20.91;85.81
64687;BME280;51113;53.646;-113.674;2022-07-29T07:56:23;93247.84;;;20.88;86.31
64687;BME280;51113;53.646;-113.674;2022-07-29T07:58:52;93255.63;;;20.90;85.78
64687;BME280;51113;53.646;-113.674;2022-07-29T08:01:20;93254.31;;;20.78;86.62
64687;BME280;51113;53.646;-113.674;2022-07-29T08:03:51;93257.19;;;20.73;87.36
64687;BME280;51113;53.646;-113.674;2022-07-29T08:06:19;93249.56;;;20.75;87.32
64687;BME280;51113;53.646;-113.674;2022-07-29T08:08:48;93246.53;;;20.77;87.29
64687;BME280;51113;53.646;-113.674;2022-07-29T08:11:17;93252.25;;;20.75;87.63
64687;BME280;51113;53.646;-113.674;2022-07-29T08:13:46;93250.03;;;20.69;87.51
64687;BME280;51113;53.646;-113.674;2022-07-29T08:16:15;93253.38;;;20.57;87.60
64687;BME280;51113;53.646;-113.674;2022-07-29T08:18:45;93244.47;;;20.48;88.22
64687;BME280;51113;53.646;-113.674;2022-07-29T08:21:15;93253.38;;;20.48;88.59
64687;BME280;51113;53.646;-113.674;2022-07-29T08:23:44;93244.31;;;20.53;88.62
64687;BME280;51113;53.646;-113.674;2022-07-29T08:26:24;93245.28;;;20.40;88.44
64687;BME280;51113;53.646;-113.674;2022-07-29T08:28:53;93247.78;;;20.36;88.95
64687;BME280;51113;53.646;-113.674;2022-07-29T08:31:22;93249.06;;;20.39;88.70
64687;BME280;51113;53.646;-113.674;2022-07-29T08:33:51;93238.72;;;20.32;89.00
64687;BME280;51113;53.646;-113.674;2022-07-29T08:36:19;93239.66;;;20.28;89.59
64687;BME280;51113;53.646;-113.674;2022-07-29T08:38:49;93247.66;;;20.41;89.99
64687;BME280;51113;53.646;-113.674;2022-07-29T08:41:18;93244.75;;;20.38;89.75
64687;BME280;51113;53.646;-113.674;2022-07-29T08:43:48;93241.41;;;20.32;89.37
64687;BME280;51113;53.646;-113.674;2022-07-29T08:46:17;93236.19;;;20.27;90.08
64687;BME280;51113;53.646;-113.674;2022-07-29T08:48:47;93239.19;;;20.26;90.61
64687;BME280;51113;53.646;-113.674;2022-07-29T08:51:18;93241.41;;;20.23;90.36
64687;BME280;51113;53.646;-113.674;2022-07-29T08:53:48;93241.09;;;20.16;90.57
64687;BME280;51113;53.646;-113.674;2022-07-29T08:56:18;93238.06;;;20.18;89.87
64687;BME280;51113;53.646;-113.674;2022-07-29T08:58:48;93237.09;;;20.05;90.30
64687;BME280;51113;53.646;-113.674;2022-07-29T09:01:25;93245.66;;;19.99;91.28
64687;BME280;51113;53.646;-113.674;2022-07-29T09:04:09;93245.63;;;19.90;91.29
64687;BME280;51113;53.646;-113.674;2022-07-29T09:06:43;93241.66;;;19.87;91.82
64687;BME280;51113;53.646;-113.674;2022-07-29T09:09:14;93244.66;;;19.86;91.01
64687;BME280;51113;53.646;-113.674;2022-07-29T09:11:43;93243.06;;;19.85;91.49
64687;BME280;51113;53.646;-113.674;2022-07-29T09:14:13;93233.53;;;19.79;91.88
64687;BME280;51113;53.646;-113.674;2022-07-29T09:16:49;93242.38;;;19.71;91.79
64687;BME280;51113;53.646;-113.674;2022-07-29T09:19:27;93229.41;;;19.73;91.26
64687;BME280;51113;53.646;-113.674;2022-07-29T09:21:57;93234.28;;;19.62;91.97
64687;BME280;51113;53.646;-113.674;2022-07-29T09:24:46;93242.31;;;19.53;92.50
64687;BME280;51113;53.646;-113.674;2022-07-29T09:29:58;93244.09;;;19.58;91.79
64687;BME280;51113;53.646;-113.674;2022-07-29T09:32:28;93234.34;;;19.48;92.27
64687;BME280;51113;53.646;-113.674;2022-07-29T09:35:21;93243.03;;;19.45;92.81
64687;BME280;51113;53.646;-113.674;2022-07-29T09:37:50;93240.22;;;19.50;92.38
64687;BME280;51113;53.646;-113.674;2022-07-29T09:40:23;93236.38;;;19.43;92.07
64687;BME280;51113;53.646;-113.674;2022-07-29T09:42:53;93262.38;;;19.16;96.58
64687;BME280;51113;53.646;-113.674;2022-07-29T09:45:30;93250.13;;;19.33;94.88
64687;BME280;51113;53.646;-113.674;2022-07-29T09:48:12;93246.31;;;19.34;96.13
64687;BME280;51113;53.646;-113.674;2022-07-29T09:50:43;93261.94;;;19.23;96.04
64687;BME280;51113;53.646;-113.674;2022-07-29T09:53:30;93254.78;;;19.18;95.81
64687;BME280;51113;53.646;-113.674;2022-07-29T09:55:59;93270.47;;;18.94;97.03
64687;BME280;51113;53.646;-113.674;2022-07-29T09:58:28;93254.06;;;19.04;95.94
64687;BME280;51113;53.646;-113.674;2022-07-29T10:00:57;93257.31;;;18.92;97.56
64687;BME280;51113;53.646;-113.674;2022-07-29T10:03:25;93259.34;;;18.87;95.58
64687;BME280;51113;53.646;-113.674;2022-07-29T10:06:10;93244.97;;;18.91;97.12
64687;BME280;51113;53.646;-113.674;2022-07-29T10:08:41;93255.91;;;18.73;97.89
64687;BME280;51113;53.646;-113.674;2022-07-29T10:11:14;93251.28;;;18.87;97.10
64687;BME280;51113;53.646;-113.674;2022-07-29T10:13:43;93249.94;;;18.76;96.53
64687;BME280;51113;53.646;-113.674;2022-07-29T10:16:13;93244.78;;;18.66;96.42
64687;BME280;51113;53.646;-113.674;2022-07-29T10:18:43;93246.59;;;18.56;96.34
64687;BME280;51113;53.646;-113.674;2022-07-29T10:21:12;93248.66;;;18.59;97.05
64687;BME280;51113;53.646;-113.674;2022-07-29T10:24:01;93238.44;;;18.61;96.44
64687;BME280;51113;53.646;-113.674;2022-07-29T10:26:30;93242.78;;;18.57;96.04
64687;BME280;51113;53.646;-113.674;2022-07-29T10:28:59;93241.50;;;18.55;95.82
64687;BME280;51113;53.646;-113.674;2022-07-29T10:43:28;93229.88;;;18.46;96.67
64687;BME280;51113;53.646;-113.674;2022-07-29T10:45:59;93227.69;;;18.48;97.21
64687;BME280;51113;53.646;-113.674;2022-07-29T10:48:33;93229.66;;;18.56;97.03
64687;BME280;51113;53.646;-113.674;2022-07-29T10:51:05;93227.25;;;18.54;96.31
64687;BME280;51113;53.646;-113.674;2022-07-29T10:53:50;93231.53;;;18.69;97.82
64687;BME280;51113;53.646;-113.674;2022-07-29T10:56:29;93234.34;;;18.50;96.94
64687;BME280;51113;53.646;-113.674;2022-07-29T11:01:50;93241.25;;;18.43;96.05
64687;BME280;51113;53.646;-113.674;2022-07-29T11:07:35;93236.47;;;18.40;96.17
64687;BME280;51113;53.646;-113.674;2022-07-29T11:12:47;93250.25;;;18.24;98.56
64687;BME280;51113;53.646;-113.674;2022-07-29T11:15:21;93241.78;;;18.17;98.43
64687;BME280;51113;53.646;-113.674;2022-07-29T11:20:43;93241.72;;;18.22;98.42
64687;BME280;51113;53.646;-113.674;2022-07-29T11:23:32;93246.19;;;18.13;98.60
64687;BME280;51113;53.646;-113.674;2022-07-29T11:34:25;93256.66;;;17.87;100.00
64687;BME280;51113;53.646;-113.674;2022-07-29T11:42:39;93270.91;;;17.74;100.00
64687;BME280;51113;53.646;-113.674;2022-07-29T11:45:16;93261.34;;;17.68;100.00
64687;BME280;51113;53.646;-113.674;2022-07-29T11:48:05;93257.88;;;17.67;100.00
64687;BME280;51113;53.646;-113.674;2022-07-29T11:50:56;93259.47;;;17.68;100.00
64687;BME280;51113;53.646;-113.674;2022-07-29T11:53:25;93257.63;;;17.64;100.00
64687;BME280;51113;53.646;-113.674;2022-07-29T11:55:55;93258.44;;;17.64;100.00
64687;BME280;51113;53.646;-113.674;2022-07-29T11:58:24;93260.63;;;17.62;100.00
64687;BME280;51113;53.646;-113.674;2022-07-29T12:00:54;93266.09;;;17.57;100.00
64687;BME280;51113;53.646;-113.674;2022-07-29T12:03:27;93263.00;;;17.64;100.00
64687;BME280;51113;53.646;-113.674;2022-07-29T12:06:12;93261.81;;;17.56;100.00
64687;BME280;51113;53.646;-113.674;2022-07-29T12:08:46;93270.06;;;17.60;100.00
64687;BME280;51113;53.646;-113.674;2022-07-29T12:11:17;93261.66;;;17.66;100.00
64687;BME280;51113;53.646;-113.674;2022-07-29T12:13:48;93268.91;;;17.66;100.00
64687;BME280;51113;53.646;-113.674;2022-07-29T12:16:17;93276.56;;;18.00;100.00
64687;BME280;51113;53.646;-113.674;2022-07-29T12:19:04;93270.69;;;17.98;100.00
64687;BME280;51113;53.646;-113.674;2022-07-29T12:21:48;93272.06;;;18.09;100.00
64687;BME280;51113;53.646;-113.674;2022-07-29T12:24:22;93278.31;;;18.32;100.00
64687;BME280;51113;53.646;-113.674;2022-07-29T12:26:57;93280.38;;;18.49;100.00
64687;BME280;51113;53.646;-113.674;2022-07-29T12:29:28;93276.41;;;18.46;100.00
64687;BME280;51113;53.646;-113.674;2022-07-29T12:32:03;93284.47;;;18.46;100.00
64687;BME280;51113;53.646;-113.674;2022-07-29T12:34:40;93286.84;;;18.48;99.84
64687;BME280;51113;53.646;-113.674;2022-07-29T12:37:09;93285.94;;;18.52;99.47
64687;BME280;51113;53.646;-113.674;2022-07-29T12:39:39;93291.31;;;18.52;99.20
64687;BME280;51113;53.646;-113.674;2022-07-29T12:42:15;93291.81;;;18.54;98.87
64687;BME280;51113;53.646;-113.674;2022-07-29T12:44:48;93286.25;;;18.51;98.86
64687;BME280;51113;53.646;-113.674;2022-07-29T12:47:19;93286.38;;;18.46;98.40
64687;BME280;51113;53.646;-113.674;2022-07-29T12:49:48;93288.25;;;18.45;98.48
64687;BME280;51113;53.646;-113.674;2022-07-29T12:52:31;93283.38;;;18.47;97.96
64687;BME280;51113;53.646;-113.674;2022-07-29T12:55:01;93286.66;;;18.44;97.32
64687;BME280;51113;53.646;-113.674;2022-07-29T12:57:30;93290.66;;;18.47;97.11
64687;BME280;51113;53.646;-113.674;2022-07-29T13:00:03;93290.91;;;18.59;96.30
64687;BME280;51113;53.646;-113.674;2022-07-29T13:02:32;93291.69;;;18.59;95.88
64687;BME280;51113;53.646;-113.674;2022-07-29T13:05:04;93291.22;;;18.57;96.14
64687;BME280;51113;53.646;-113.674;2022-07-29T13:07:35;93295.78;;;18.71;94.95
64687;BME280;51113;53.646;-113.674;2022-07-29T13:10:21;93286.63;;;18.72;95.02
64687;BME280;51113;53.646;-113.674;2022-07-29T13:15:32;93287.66;;;18.84;95.17
64687;BME280;51113;53.646;-113.674;2022-07-29T13:18:03;93284.72;;;18.94;94.66
64687;BME280;51113;53.646;-113.674;2022-07-29T13:20:32;93294.28;;;19.01;94.22
64687;BME280;51113;53.646;-113.674;2022-07-29T13:23:01;93296.34;;;19.04;94.32
64687;BME280;51113;53.646;-113.674;2022-07-29T13:25:31;93290.16;;;19.03;94.34
64687;BME280;51113;53.646;-113.674;2022-07-29T13:28:00;93293.53;;;19.09;94.17
64687;BME280;51113;53.646;-113.674;2022-07-29T13:30:28;93286.44;;;19.13;94.35
64687;BME280;51113;53.646;-113.674;2022-07-29T13:32:57;93287.78;;;19.24;94.21
64687;BME280;51113;53.646;-113.674;2022-07-29T13:35:26;93279.78;;;19.41;93.40
64687;BME280;51113;53.646;-113.674;2022-07-29T13:37:57;93281.41;;;19.51;92.90
64687;BME280;51113;53.646;-113.674;2022-07-29T13:40:29;93286.44;;;19.66;92.14
64687;BME280;51113;53.646;-113.674;2022-07-29T13:42:58;93291.06;;;19.74;91.38
64687;BME280;51113;53.646;-113.674;2022-07-29T13:45:27;93294.13;;;19.90;91.06
64687;BME280;51113;53.646;-113.674;2022-07-29T13:47:55;93280.38;;;20.00;90.13
64687;BME280;51113;53.646;-113.674;2022-07-29T13:50:24;93291.22;;;20.26;89.40
64687;BME280;51113;53.646;-113.674;2022-07-29T13:52:52;93295.84;;;20.34;88.35
64687;BME280;51113;53.646;-113.674;2022-07-29T13:55:21;93283.81;;;20.40;88.22